sensor_id;sensor_type;location;lat;lon;timestamp;pressure;altitude;pressure_sealevel;temperature;humidity
19789;BME280;10054;59.332;18.244;2022-12-29T00:01:19;99634.44;;;1.49;100.00
19789;BME280;10054;59.332;18.244;2022-12-29T00:03:48;99634.15;;;1.46;100.00
19789;BME280;10054;59.332;18.244;2022-12-29T00:06:17;99635.05;;;1.45;100.00
19789;BME280;10054;59.332;18.244;2022-12-29T00:08:45;99638.11;;;1.45;100.00
19789;BME280;10054;59.332;18.244;2022-12-29T00:11:22;99632.52;;;1.44;100.00
19789;BME280;10054;59.332;18.244;2022-12-29T00:13:46;99638.30;;;1.40;100.00
19789;BME280;10054;59.332;18.244;2022-12-29T00:16:34;99641.80;;;1.39;100.00
19789;BME280;10054;59.332;18.244;2022-12-29T00:19:04;99639.72;;;1.37;100.00
19789;BME280;10054;59.332;18.244;2022-12-29T00:21:32;99642.77;;;1.37;100.00
19789;BME280;10054;59.332;18.244;2022-12-29T00:24:21;99646.67;;;1.37;100.00
19789;BME280;10054;59.332;18.244;2022-12-29T00:27:10;99648.56;;;1.43;100.00
19789;BME280;10054;59.332;18.244;2022-12-29T00:29:57;99645.89;;;1.55;100.00
19789;BME280;10054;59.332;18.244;2022-12-29T00:32:44;99642.50;;;1.53;100.00
19789;BME280;10054;59.332;18.244;2022-12-29T00:35:33;99631.16;;;1.45;100.00
19789;BME280;10054;59.332;18.244;2022-12-29T00:38:05;99633.16;;;1.39;100.00
19789;BME280;10054;59.332;18.244;2022-12-29T00:40:52;99631.14;;;1.35;100.00
19789;BME280;10054;59.332;18.244;2022-12-29T00:43:39;99626.98;;;1.31;100.00
19789;BME280;10054;59.332;18.244;2022-12-29T00:46:25;99629.52;;;1.33;100.00
19789;BME280;10054;59.332;18.244;2022-12-29T00:48:56;99629.00;;;1.35;100.00
19789;BME280;10054;59.332;18.244;2022-12-29T00:51:42;99629.05;;;1.33;100.00
19789;BME280;10054;59.332;18.244;2022-12-29T00:54:12;99628.21;;;1.33;100.00
19789;BME280;10054;59.332;18.244;2022-12-29T00:56:41;99626.46;;;1.33;100.00
19789;BME280;10054;59.332;18.244;2022-12-29T00:59:11;99620.41;;;1.33;100.00
19789;BME280;10054;59.332;18.244;2022-12-29T01:01:40;99618.66;;;1.33;100.00
19789;BME280;10054;59.332;18.244;2022-12-29T01:04:09;99612.56;;;1.34;100.00
19789;BME280;10054;59.332;18.244;2022-12-29T01:06:40;99611.72;;;1.34;100.00
19789;BME280;10054;59.332;18.244;2022-12-29T01:09:09;99614.25;;;1.35;100.00
19789;BME280;10054;59.332;18.244;2022-12-29T01:11:57;99614.19;;;1.37;100.00
19789;BME280;10054;59.332;18.244;2022-12-29T01:14:26;99614.58;;;1.38;100.00
19789;BME280;10054;59.332;18.244;2022-12-29T01:16:55;99618.87;;;1.39;100.00
19789;BME280;10054;59.332;18.244;2022-12-29T01:19:25;99611.92;;;1.39;100.00
19789;BME280;10054;59.332;18.244;2022-12-29T01:21:56;99611.02;;;1.40;100.00
19789;BME280;10054;59.332;18.244;2022-12-29T01:24:24;99605.75;;;1.42;100.00
19789;BME280;10054;59.332;18.244;2022-12-29T01:26:53;99598.41;;;1.41;100.00
19789;BME280;10054;59.332;18.244;2022-12-29T01:29:22;99597.89;;;1.43;100.00
19789;BME280;10054;59.332;18.244;2022-12-29T01:31:51;99595.23;;;1.45;100.00
19789;BME280;10054;59.332;18.244;2022-12-29T01:34:20;99590.42;;;1.46;100.00
19789;BME280;10054;59.332;18.244;2022-12-29T01:36:49;99592.17;;;1.45;100.00
19789;BME280;10054;59.332;18.244;2022-12-29T01:39:18;99590.36;;;1.47;100.00
19789;BME280;10054;59.332;18.244;2022-12-29T01:41:46;99592.05;;;1.48;100.00
19789;BME280;10054;59.332;18.244;2022-12-29T01:44:53;99581.16;;;1.49;100.00
19789;BME280;10054;59.332;18.244;2022-12-29T01:53:10;99569.54;;;1.57;100.00
19789;BME280;10054;59.332;18.244;2022-12-29T01:55:42;99563.36;;;1.60;100.00
19789;BME280;10054;59.332;18.244;2022-12-29T01:58:12;99571.03;;;1.63;100.00
19789;BME280;10054;59.332;18.244;2022-12-29T02:00:42;99566.61;;;1.65;100.00
19789;BME280;10054;59.332;18.244;2022-12-29T02:03:11;99568.17;;;1.69;100.00
19789;BME280;10054;59.332;18.244;2022-12-29T02:05:43;99560.69;;;1.72;100.00
19789;BME280;10054;59.332;18.244;2022-12-29T02:08:13;99561.47;;;1.74;100.00
19789;BME280;10054;59.332;18.244;2022-12-29T02:10:43;99565.38;;;1.74;100.00
19789;BME280;10054;59.332;18.244;2022-12-29T02:13:15;99553.54;;;1.77;100.00
19789;BME280;10054;59.332;18.244;2022-12-29T02:24:08;99542.48;;;1.82;100.00
19789;BME280;10054;59.332;18.244;2022-12-29T02:26:51;99541.19;;;1.82;100.00
19789;BME280;10054;59.332;18.244;2022-12-29T02:32:10;99523.30;;;1.84;100.00
19789;BME280;10054;59.332;18.244;2022-12-29T02:34:48;99521.41;;;1.88;100.00
19789;BME280;10054;59.332;18.244;2022-12-29T02:37:32;99516.92;;;1.91;100.00
19789;BME280;10054;59.332;18.244;2022-12-29T02:45:18;99512.87;;;1.94;100.00
19789;BME280;10054;59.332;18.244;2022-12-29T02:50:27;99513.27;;;1.95;100.00
19789;BME280;10054;59.332;18.244;2022-12-29T02:52:58;99507.08;;;1.98;100.00
19789;BME280;10054;59.332;18.244;2022-12-29T02:55:28;99508.70;;;2.01;100.00
19789;BME280;10054;59.332;18.244;2022-12-29T02:58:21;99511.23;;;2.02;100.00
19789;BME280;10054;59.332;18.244;2022-12-29T03:04:03;99500.16;;;2.07;100.00
19789;BME280;10054;59.332;18.244;2022-12-29T03:11:59;99489.55;;;2.12;100.00
19789;BME280;10054;59.332;18.244;2022-12-29T03:18:02;99496.44;;;2.13;100.00
19789;BME280;10054;59.332;18.244;2022-12-29T03:20:54;99489.94;;;2.13;100.00
19789;BME280;10054;59.332;18.244;2022-12-29T03:23:21;99497.21;;;2.15;100.00
19789;BME280;10054;59.332;18.244;2022-12-29T03:25:55;99495.91;;;2.15;100.00
19789;BME280;10054;59.332;18.244;2022-12-29T03:28:30;99493.23;;;2.16;100.00
19789;BME280;10054;59.332;18.244;2022-12-29T03:30:59;99488.03;;;2.16;100.00
19789;BME280;10054;59.332;18.244;2022-12-29T03:33:29;99481.53;;;2.16;100.00
19789;BME280;10054;59.332;18.244;2022-12-29T03:36:10;99475.41;;;2.17;100.00
19789;BME280;10054;59.332;18.244;2022-12-29T03:38:56;99475.34;;;2.19;100.00
19789;BME280;10054;59.332;18.244;2022-12-29T03:41:26;99474.74;;;2.22;100.00
19789;BME280;10054;59.332;18.244;2022-12-29T03:43:55;99468.37;;;2.28;100.00
19789;BME280;10054;59.332;18.244;2022-12-29T03:46:24;99464.72;;;2.32;100.00
19789;BME280;10054;59.332;18.244;2022-12-29T03:48:53;99458.84;;;2.37;100.00
19789;BME280;10054;59.332;18.244;2022-12-29T03:51:22;99467.44;;;2.48;100.00
19789;BME280;10054;59.332;18.244;2022-12-29T03:53:51;99466.69;;;2.54;100.00
19789;BME280;10054;59.332;18.244;2022-12-29T03:56:20;99469.67;;;2.55;100.00
19789;BME280;10054;59.332;18.244;2022-12-29T03:58:49;99473.96;;;2.56;100.00
19789;BME280;10054;59.332;18.244;2022-12-29T04:01:22;99464.92;;;2.55;100.00
19789;BME280;10054;59.332;18.244;2022-12-29T04:03:51;99451.06;;;2.54;100.00
19789;BME280;10054;59.332;18.244;2022-12-29T04:06:20;99451.45;;;2.55;100.00
19789;BME280;10054;59.332;18.244;2022-12-29T04:08:53;99441.50;;;2.55;100.00
19789;BME280;10054;59.332;18.244;2022-12-29T04:11:24;99435.30;;;2.57;100.00
19789;BME280;10054;59.332;18.244;2022-12-29T04:13:53;99427.56;;;2.56;100.00
19789;BME280;10054;59.332;18.244;2022-12-29T04:16:23;99430.47;;;2.58;100.00
19789;BME280;10054;59.332;18.244;2022-12-29T04:18:52;99427.41;;;2.59;100.00
19789;BME280;10054;59.332;18.244;2022-12-29T04:21:21;99420.38;;;2.61;100.00
19789;BME280;10054;59.332;18.244;2022-12-29T04:23:50;99413.86;;;2.61;100.00
19789;BME280;10054;59.332;18.244;2022-12-29T04:26:18;99410.41;;;2.60;100.00
19789;BME280;10054;59.332;18.244;2022-12-29T04:29:04;99403.75;;;2.63;100.00
19789;BME280;10054;59.332;18.244;2022-12-29T04:31:46;99407.13;;;2.66;100.00
19789;BME280;10054;59.332;18.244;2022-12-29T04:34:15;99401.00;;;2.67;100.00
19789;BME280;10054;59.332;18.244;2022-12-29T04:36:44;99394.11;;;2.66;100.00
19789;BME280;10054;59.332;18.244;2022-12-29T04:39:13;99387.98;;;2.67;100.00
19789;BME280;10054;59.332;18.244;2022-12-29T04:41:42;99390.05;;;2.69;100.00
19789;BME280;10054;59.332;18.244;2022-12-29T04:44:13;99384.84;;;2.69;100.00
19789;BME280;10054;59.332;18.244;2022-12-29T04:46:49;99391.20;;;2.72;100.00
19789;BME280;10054;59.332;18.244;2022-12-29T04:49:19;99381.16;;;2.73;100.00
19789;BME280;10054;59.332;18.244;2022-12-29T04:51:55;99380.25;;;2.74;100.00
19789;BME280;10054;59.332;18.244;2022-12-29T04:54:24;99379.33;;;2.75;100.00
19789;BME280;10054;59.332;18.244;2022-12-29T04:56:57;99376.64;;;2.76;100.00
19789;BME280;10054;59.332;18.244;2022-12-29T04:59:26;99372.66;;;2.78;100.00
19789;BME280;10054;59.332;18.244;2022-12-29T05:01:57;99379.17;;;2.78;100.00
19789;BME280;10054;59.332;18.244;2022-12-29T05:04:26;99381.39;;;2.77;100.00
19789;BME280;10054;59.332;18.244;2022-12-29T05:06:54;99383.92;;;2.78;100.00
19789;BME280;10054;59.332;18.244;2022-12-29T05:09:24;99381.23;;;2.80;100.00
19789;BME280;10054;59.332;18.244;2022-12-29T05:11:53;99373.89;;;2.79;100.00
19789;BME280;10054;59.332;18.244;2022-12-29T05:14:22;99367.22;;;2.82;100.00
19789;BME280;10054;59.332;18.244;2022-12-29T05:16:51;99364.08;;;2.84;100.00
19789;BME280;10054;59.332;18.244;2022-12-29T05:19:20;99361.02;;;2.85;100.00
19789;BME280;10054;59.332;18.244;2022-12-29T05:21:48;99355.80;;;2.85;100.00
19789;BME280;10054;59.332;18.244;2022-12-29T05:24:17;99351.20;;;2.90;100.00
19789;BME280;10054;59.332;18.244;2022-12-29T05:26:48;99356.80;;;2.91;100.00
19789;BME280;10054;59.332;18.244;2022-12-29T05:29:30;99358.94;;;2.91;100.00
19789;BME280;10054;59.332;18.244;2022-12-29T05:31:59;99361.55;;;2.91;100.00
19789;BME280;10054;59.332;18.244;2022-12-29T05:34:29;99363.30;;;2.91;100.00
19789;BME280;10054;59.332;18.244;2022-12-29T05:36:57;99362.77;;;2.93;100.00
19789;BME280;10054;59.332;18.244;2022-12-29T05:39:26;99365.83;;;2.92;100.00
19789;BME280;10054;59.332;18.244;2022-12-29T05:41:57;99364.61;;;2.91;100.00
19789;BME280;10054;59.332;18.244;2022-12-29T05:44:30;99355.49;;;2.91;100.00
19789;BME280;10054;59.332;18.244;2022-12-29T05:47:12;99358.86;;;2.93;100.00
19789;BME280;10054;59.332;18.244;2022-12-29T05:49:49;99351.42;;;2.94;100.00
19789;BME280;10054;59.332;18.244;2022-12-29T05:52:20;99353.95;;;2.95;100.00
19789;BME280;10054;59.332;18.244;2022-12-29T05:54:49;99348.28;;;2.96;100.00
19789;BME280;10054;59.332;18.244;2022-12-29T05:57:19;99354.34;;;2.96;100.00
19789;BME280;10054;59.332;18.244;2022-12-29T05:59:50;99349.47;;;2.97;100.00
19789;BME280;10054;59.332;18.244;2022-12-29T06:02:19;99342.97;;;2.97;100.00
19789;BME280;10054;59.332;18.244;2022-12-29T06:04:48;99334.14;;;3.00;100.00
19789;BME280;10054;59.332;18.244;2022-12-29T06:07:18;99333.69;;;3.01;100.00
19789;BME280;10054;59.332;18.244;2022-12-29T06:09:48;99331.46;;;3.02;100.00
19789;BME280;10054;59.332;18.244;2022-12-29T06:12:17;99324.56;;;3.01;100.00
19789;BME280;10054;59.332;18.244;2022-12-29T06:14:48;99316.13;;;3.04;100.00
19789;BME280;10054;59.332;18.244;2022-12-29T06:17:17;99316.13;;;3.04;100.00
19789;BME280;10054;59.332;18.244;2022-12-29T06:19:46;99310.08;;;3.04;100.00
19789;BME280;10054;59.332;18.244;2022-12-29T06:22:15;99314.75;;;3.06;100.00
19789;BME280;10054;59.332;18.244;2022-12-29T06:24:44;99308.70;;;3.05;100.00
19789;BME280;10054;59.332;18.244;2022-12-29T06:27:13;99301.72;;;3.06;100.00
19789;BME280;10054;59.332;18.244;2022-12-29T06:29:42;99301.64;;;3.07;100.00
19789;BME280;10054;59.332;18.244;2022-12-29T06:32:11;99295.13;;;3.07;100.00
19789;BME280;10054;59.332;18.244;2022-12-29T06:34:41;99296.81;;;3.08;100.00
19789;BME280;10054;59.332;18.244;2022-12-29T06:37:12;99288.91;;;3.10;100.00
19789;BME280;10054;59.332;18.244;2022-12-29T06:39:42;99282.31;;;3.11;100.00
19789;BME280;10054;59.332;18.244;2022-12-29T06:42:12;99278.33;;;3.13;100.00
19789;BME280;10054;59.332;18.244;2022-12-29T06:44:45;99269.21;;;3.13;100.00
19789;BME280;10054;59.332;18.244;2022-12-29T06:47:14;99267.45;;;3.13;100.00
19789;BME280;10054;59.332;18.244;2022-12-29T06:49:43;99262.15;;;3.15;100.00
19789;BME280;10054;59.332;18.244;2022-12-29T06:52:12;99265.98;;;3.16;100.00
19789;BME280;10054;59.332;18.244;2022-12-29T06:54:43;99265.44;;;3.18;100.00
19789;BME280;10054;59.332;18.244;2022-12-29T06:57:12;99271.41;;;3.20;100.00
19789;BME280;10054;59.332;18.244;2022-12-29T06:59:41;99266.11;;;3.22;100.00
19789;BME280;10054;59.332;18.244;2022-12-29T07:02:13;99279.05;;;3.23;100.00
19789;BME280;10054;59.332;18.244;2022-12-29T07:04:46;99278.59;;;3.24;100.00
19789;BME280;10054;59.332;18.244;2022-12-29T07:07:15;99277.75;;;3.23;100.00
19789;BME280;10054;59.332;18.244;2022-12-29T07:09:45;99282.20;;;3.21;100.00
19789;BME280;10054;59.332;18.244;2022-12-29T07:12:13;99276.91;;;3.23;100.00
19789;BME280;10054;59.332;18.244;2022-12-29T07:14:42;99276.45;;;3.23;100.00
19789;BME280;10054;59.332;18.244;2022-12-29T07:17:11;99270.86;;;3.22;100.00
19789;BME280;10054;59.332;18.244;2022-12-29T07:19:40;99269.47;;;3.24;100.00
19789;BME280;10054;59.332;18.244;2022-12-29T07:22:10;99269.02;;;3.24;100.00
19789;BME280;10054;59.332;18.244;2022-12-29T07:24:38;99255.98;;;3.24;100.00
19789;BME280;10054;59.332;18.244;2022-12-29T07:27:07;99255.06;;;3.25;100.00
19789;BME280;10054;59.332;18.244;2022-12-29T07:29:39;99245.77;;;3.28;100.00
19789;BME280;10054;59.332;18.244;2022-12-29T07:32:08;99250.90;;;3.30;100.00
19789;BME280;10054;59.332;18.244;2022-12-29T07:34:37;99251.82;;;3.29;100.00
19789;BME280;10054;59.332;18.244;2022-12-29T07:37:07;99255.35;;;3.28;100.00
19789;BME280;10054;59.332;18.244;2022-12-29T07:39:36;99241.39;;;3.29;100.00
19789;BME280;10054;59.332;18.244;2022-12-29T07:42:04;99236.27;;;3.27;100.00
19789;BME280;10054;59.332;18.244;2022-12-29T07:44:35;99226.69;;;3.28;100.00
19789;BME280;10054;59.332;18.244;2022-12-29T07:47:14;99226.22;;;3.28;100.00
19789;BME280;10054;59.332;18.244;2022-12-29T07:49:43;99230.05;;;3.30;100.00
19789;BME280;10054;59.332;18.244;2022-12-29T07:52:12;99218.32;;;3.30;100.00
19789;BME280;10054;59.332;18.244;2022-12-29T07:54:41;99213.86;;;3.32;100.00
19789;BME280;10054;59.332;18.244;2022-12-29T07:57:09;99213.86;;;3.32;100.00
19789;BME280;10054;59.332;18.244;2022-12-29T07:59:38;99205.12;;;3.33;100.00
19789;BME280;10054;59.332;18.244;2022-12-29T08:02:09;99209.78;;;3.35;100.00
19789;BME280;10054;59.332;18.244;2022-12-29T08:04:37;99209.70;;;3.37;100.00
19789;BME280;10054;59.332;18.244;2022-12-29T08:07:06;99204.86;;;3.38;100.00
19789;BME280;10054;59.332;18.244;2022-12-29T08:09:35;99203.19;;;3.37;100.00
19789;BME280;10054;59.332;18.244;2022-12-29T08:12:04;99208.31;;;3.38;100.00
19789;BME280;10054;59.332;18.244;2022-12-29T08:14:32;99207.94;;;3.37;100.00
19789;BME280;10054;59.332;18.244;2022-12-29T08:17:01;99200.95;;;3.38;100.00
19789;BME280;10054;59.332;18.244;2022-12-29T08:19:30;99197.05;;;3.38;100.00
19789;BME280;10054;59.332;18.244;2022-12-29T08:21:59;99190.91;;;3.39;100.00
19789;BME280;10054;59.332;18.244;2022-12-29T08:24:28;99179.17;;;3.39;100.00
19789;BME280;10054;59.332;18.244;2022-12-29T08:26:57;99168.75;;;3.39;100.00
19789;BME280;10054;59.332;18.244;2022-12-29T08:29:25;99157.86;;;3.39;100.00
19789;BME280;10054;59.332;18.244;2022-12-29T08:31:54;99159.16;;;3.39;100.00
19789;BME280;10054;59.332;18.244;2022-12-29T08:34:23;99164.38;;;3.39;100.00
19789;BME280;10054;59.332;18.244;2022-12-29T08:36:52;99156.55;;;3.39;100.00
19789;BME280;10054;59.332;18.244;2022-12-29T08:39:21;99161.22;;;3.41;100.00
19789;BME280;10054;59.332;18.244;2022-12-29T08:41:49;99160.00;;;3.40;100.00
19789;BME280;10054;59.332;18.244;2022-12-29T08:44:18;99160.38;;;3.41;100.00
19789;BME280;10054;59.332;18.244;2022-12-29T08:46:47;99159.08;;;3.41;100.00
19789;BME280;10054;59.332;18.244;2022-12-29T08:49:16;99159.08;;;3.41;100.00
19789;BME280;10054;59.332;18.244;2022-12-29T08:51:45;99162.44;;;3.43;100.00
19789;BME280;10054;59.332;18.244;2022-12-29T08:54:13;99165.05;;;3.43;100.00
19789;BME280;10054;59.332;18.244;2022-12-29T08:56:42;99159.74;;;3.44;100.00
19789;BME280;10054;59.332;18.244;2022-12-29T08:59:11;99150.62;;;3.44;100.00
19789;BME280;10054;59.332;18.244;2022-12-29T09:01:41;99152.39;;;3.44;100.00
19789;BME280;10054;59.332;18.244;2022-12-29T09:04:10;99147.46;;;3.46;100.00
19789;BME280;10054;59.332;18.244;2022-12-29T09:06:39;99143.84;;;3.49;100.00
19789;BME280;10054;59.332;18.244;2022-12-29T09:09:08;99143.30;;;3.51;100.00
19789;BME280;10054;59.332;18.244;2022-12-29T09:11:36;99137.15;;;3.52;100.00
19789;BME280;10054;59.332;18.244;2022-12-29T09:14:05;99134.83;;;3.54;100.00
19789;BME280;10054;59.332;18.244;2022-12-29T09:16:35;99139.49;;;3.56;100.00
19789;BME280;10054;59.332;18.244;2022-12-29T09:19:05;99122.45;;;3.58;100.00
19789;BME280;10054;59.332;18.244;2022-12-29T09:21:34;99112.78;;;3.60;100.00
19789;BME280;10054;59.332;18.244;2022-12-29T09:24:03;99114.37;;;3.62;100.00
19789;BME280;10054;59.332;18.244;2022-12-29T09:26:33;99097.23;;;3.66;100.00
19789;BME280;10054;59.332;18.244;2022-12-29T09:29:01;99099.45;;;3.72;100.00
19789;BME280;10054;59.332;18.244;2022-12-29T09:31:30;99088.38;;;3.75;100.00
19789;BME280;10054;59.332;18.244;2022-12-29T09:33:59;99087.36;;;3.78;100.00
19789;BME280;10054;59.332;18.244;2022-12-29T09:36:28;99088.58;;;3.79;100.00
19789;BME280;10054;59.332;18.244;2022-12-29T09:38:56;99085.03;;;3.80;100.00
19789;BME280;10054;59.332;18.244;2022-12-29T09:41:29;99081.03;;;3.82;100.00
19789;BME280;10054;59.332;18.244;2022-12-29T09:46:51;99074.80;;;3.84;100.00
19789;BME280;10054;59.332;18.244;2022-12-29T09:49:29;99074.05;;;3.89;100.00
19789;BME280;10054;59.332;18.244;2022-12-29T09:52:01;99063.06;;;3.91;100.00
19789;BME280;10054;59.332;18.244;2022-12-29T09:57:20;99052.82;;;3.95;100.00
19789;BME280;10054;59.332;18.244;2022-12-29T09:59:50;99041.92;;;3.96;100.00
19789;BME280;10054;59.332;18.244;2022-12-29T10:10:50;99016.48;;;4.00;100.00
19789;BME280;10054;59.332;18.244;2022-12-29T10:16:25;99017.31;;;4.00;100.00
19789;BME280;10054;59.332;18.244;2022-12-29T10:19:00;99009.02;;;4.01;100.00
19789;BME280;10054;59.332;18.244;2022-12-29T10:24:17;99002.13;;;4.07;100.00
19789;BME280;10054;59.332;18.244;2022-12-29T10:26:49;98998.11;;;4.08;100.00
19789;BME280;10054;59.332;18.244;2022-12-29T10:29:22;99002.67;;;4.12;100.00
19789;BME280;10054;59.332;18.244;2022-12-29T10:34:45;98990.66;;;4.16;100.00
19789;BME280;10054;59.332;18.244;2022-12-29T10:39:54;98980.20;;;4.23;100.00
19789;BME280;10054;59.332;18.244;2022-12-29T10:42:29;98968.15;;;4.35;100.00
19789;BME280;10054;59.332;18.244;2022-12-29T10:44:59;98967.86;;;4.40;100.00
19789;BME280;10054;59.332;18.244;2022-12-29T10:47:33;98959.28;;;4.38;100.00
19789;BME280;10054;59.332;18.244;2022-12-29T10:50:04;98955.20;;;4.34;100.00
19789;BME280;10054;59.332;18.244;2022-12-29T10:52:33;98949.42;;;4.28;100.00
19789;BME280;10054;59.332;18.244;2022-12-29T10:55:15;98946.34;;;4.29;100.00
19789;BME280;10054;59.332;18.244;2022-12-29T10:57:44;98945.41;;;4.30;100.00
19789;BME280;10054;59.332;18.244;2022-12-29T11:00:19;98940.56;;;4.31;100.00
19789;BME280;10054;59.332;18.244;2022-12-29T11:02:59;98931.42;;;4.31;100.00
19789;BME280;10054;59.332;18.244;2022-12-29T11:08:33;98917.91;;;4.32;100.00
19789;BME280;10054;59.332;18.244;2022-12-29T11:11:05;98911.85;;;4.31;100.00
19789;BME280;10054;59.332;18.244;2022-12-29T11:13:50;98902.25;;;4.32;100.00
19789;BME280;10054;59.332;18.244;2022-12-29T11:16:29;98899.44;;;4.35;100.00
19789;BME280;10054;59.332;18.244;2022-12-29T11:18:59;98900.27;;;4.35;100.00
19789;BME280;10054;59.332;18.244;2022-12-29T11:24:05;98897.66;;;4.35;100.00
19789;BME280;10054;59.332;18.244;2022-12-29T11:26:35;98884.61;;;4.35;100.00
19789;BME280;10054;59.332;18.244;2022-12-29T11:29:44;98889.27;;;4.37;100.00
19789;BME280;10054;59.332;18.244;2022-12-29T11:31:54;98889.73;;;4.37;100.00
19789;BME280;10054;59.332;18.244;2022-12-29T11:34:42;98885.35;;;4.37;100.00
19789;BME280;10054;59.332;18.244;2022-12-29T11:37:03;98880.97;;;4.38;100.00
19789;BME280;10054;59.332;18.244;2022-12-29T11:39:39;98875.38;;;4.37;100.00
19789;BME280;10054;59.332;18.244;2022-12-29T11:42:14;98871.83;;;4.38;100.00
19789;BME280;10054;59.332;18.244;2022-12-29T11:44:43;98870.80;;;4.40;100.00
19789;BME280;10054;59.332;18.244;2022-12-29T11:47:19;98866.14;;;4.38;100.00
19789;BME280;10054;59.332;18.244;2022-12-29T11:49:48;98861.19;;;4.41;100.00
19789;BME280;10054;59.332;18.244;2022-12-29T11:52:15;98857.74;;;4.40;100.00
19789;BME280;10054;59.332;18.244;2022-12-29T11:54:43;98852.62;;;4.39;100.00
19789;BME280;10054;59.332;18.244;2022-12-29T11:57:15;98849.91;;;4.40;100.00
19789;BME280;10054;59.332;18.244;2022-12-29T11:59:55;98843.02;;;4.39;100.00
19789;BME280;10054;59.332;18.244;2022-12-29T12:10:50;98821.13;;;4.47;100.00
19789;BME280;10054;59.332;18.244;2022-12-29T12:13:31;98803.84;;;4.52;100.00
19789;BME280;10054;59.332;18.244;2022-12-29T12:21:18;98792.20;;;4.50;100.00
19789;BME280;10054;59.332;18.244;2022-12-29T12:26:58;98785.67;;;4.50;100.00
19789;BME280;10054;59.332;18.244;2022-12-29T12:29:50;98783.42;;;4.51;100.00
19789;BME280;10054;59.332;18.244;2022-12-29T12:46:54;98764.58;;;4.53;100.00
19789;BME280;10054;59.332;18.244;2022-12-29T12:49:48;98759.25;;;4.55;100.00
19789;BME280;10054;59.332;18.244;2022-12-29T12:52:42;98764.94;;;4.54;100.00
19789;BME280;10054;59.332;18.244;2022-12-29T12:58:06;98766.61;;;4.55;100.00
19789;BME280;10054;59.332;18.244;2022-12-29T13:01:23;98758.78;;;4.55;100.00
19789;BME280;10054;59.332;18.244;2022-12-29T13:11:49;98746.62;;;4.61;100.00
19789;BME280;10054;59.332;18.244;2022-12-29T13:17:08;98741.39;;;4.61;100.00
19789;BME280;10054;59.332;18.244;2022-12-29T13:22:19;98728.55;;;4.58;100.00
19789;BME280;10054;59.332;18.244;2022-12-29T13:27:48;98733.03;;;4.56;100.00
19789;BME280;10054;59.332;18.244;2022-12-29T13:30:26;98729.59;;;4.56;100.00
19789;BME280;10054;59.332;18.244;2022-12-29T13:36:03;98724.09;;;4.79;100.00
19789;BME280;10054;59.332;18.244;2022-12-29T13:38:43;98719.08;;;4.76;100.00
19789;BME280;10054;59.332;18.244;2022-12-29T13:41:16;98721.75;;;4.69;100.00
19789;BME280;10054;59.332;18.244;2022-12-29T13:43:45;98718.83;;;4.60;100.00
19789;BME280;10054;59.332;18.244;2022-12-29T13:46:21;98706.92;;;4.56;100.00
19789;BME280;10054;59.332;18.244;2022-12-29T13:49:04;98707.02;;;4.55;100.00
19789;BME280;10054;59.332;18.244;2022-12-29T13:51:34;98704.78;;;4.56;100.00
19789;BME280;10054;59.332;18.244;2022-12-29T14:00:04;98687.23;;;4.58;100.00
19789;BME280;10054;59.332;18.244;2022-12-29T14:08:00;98688.64;;;4.56;100.00
19789;BME280;10054;59.332;18.244;2022-12-29T14:10:47;98690.42;;;4.56;100.00
19789;BME280;10054;59.332;18.244;2022-12-29T14:13:18;98674.28;;;4.56;100.00
19789;BME280;10054;59.332;18.244;2022-12-29T14:15:52;98675.11;;;4.57;100.00
19789;BME280;10054;59.332;18.244;2022-12-29T14:18:24;98675.37;;;4.59;100.00
19789;BME280;10054;59.332;18.244;2022-12-29T14:21:11;98673.13;;;4.60;100.00
19789;BME280;10054;59.332;18.244;2022-12-29T14:23:43;98666.13;;;4.61;100.00
19789;BME280;10054;59.332;18.244;2022-12-29T14:31:55;98664.03;;;4.66;100.00
19789;BME280;10054;59.332;18.244;2022-12-29T14:34:36;98656.93;;;4.68;100.00
19789;BME280;10054;59.332;18.244;2022-12-29T14:37:02;98656.45;;;4.69;100.00
19789;BME280;10054;59.332;18.244;2022-12-29T14:39:44;98646.38;;;4.70;100.00
19789;BME280;10054;59.332;18.244;2022-12-29T14:42:15;98648.05;;;4.71;100.00
19789;BME280;10054;59.332;18.244;2022-12-29T14:44:50;98651.75;;;4.74;100.00
19789;BME280;10054;59.332;18.244;2022-12-29T14:47:34;98651.28;;;4.74;100.00
19789;BME280;10054;59.332;18.244;2022-12-29T14:50:11;98650.44;;;4.74;100.00
19789;BME280;10054;59.332;18.244;2022-12-29T14:52:52;98644.38;;;4.73;100.00
19789;BME280;10054;59.332;18.244;2022-12-29T14:58:04;98651.02;;;4.72;100.00
19789;BME280;10054;59.332;18.244;2022-12-29T15:00:35;98646.16;;;4.73;100.00
19789;BME280;10054;59.332;18.244;2022-12-29T15:05:56;98651.38;;;4.73;100.00
19789;BME280;10054;59.332;18.244;2022-12-29T15:08:28;98645.69;;;4.73;100.00
19789;BME280;10054;59.332;18.244;2022-12-29T15:11:12;98646.78;;;4.76;100.00
19789;BME280;10054;59.332;18.244;2022-12-29T15:13:43;98646.67;;;4.78;100.00
19789;BME280;10054;59.332;18.244;2022-12-29T15:18:53;98633.76;;;4.82;100.00
19789;BME280;10054;59.332;18.244;2022-12-29T15:21:29;98634.59;;;4.82;100.00
19789;BME280;10054;59.332;18.244;2022-12-29T15:23:59;98633.55;;;4.85;100.00
19789;BME280;10054;59.332;18.244;2022-12-29T15:26:39;98637.20;;;4.82;100.00
19789;BME280;10054;59.332;18.244;2022-12-29T15:32:19;98632.78;;;4.77;100.00
19789;BME280;10054;59.332;18.244;2022-12-29T15:34:50;98625.41;;;4.77;100.00
19789;BME280;10054;59.332;18.244;2022-12-29T15:37:27;98629.95;;;4.80;100.00
19789;BME280;10054;59.332;18.244;2022-12-29T15:39:57;98622.55;;;4.92;100.00
19789;BME280;10054;59.332;18.244;2022-12-29T15:45:16;98617.29;;;4.87;100.00
19789;BME280;10054;59.332;18.244;2022-12-29T15:47:46;98614.64;;;4.81;100.00
19789;BME280;10054;59.332;18.244;2022-12-29T15:50:27;98614.17;;;4.82;100.00